Time;durP1;ratioP1;P1;durP2;ratioP2;P2;SDS_P1;SDS_P2;PMS_P1;PMS_P2;Temp;Humidity;BMP_temperature;BMP_pressure;BME280_temperature;BME280_humidity;BME280_pressure;Samples;Min_cycle;Max_cycle;Signal;HPM_P1;HPM_P2
2022/03/14 00:00:59;;;;;;;5.00;4.13;;;;;;;;;;4920251;29;20318;-64
2022/03/14 00:03:28;;;;;;;5.70;4.27;;;;;;;;;;4922087;29;20211;-64
2022/03/14 00:05:55;;;;;;;6.30;4.30;;;;;;;;;;4929465;29;20211;-65
2022/03/14 00:08:24;;;;;;;5.63;4.00;;;;;;;;;;4930895;29;20231;-63
2022/03/14 00:10:53;;;;;;;5.73;4.30;;;;;;;;;;4930998;29;20215;-65
2022/03/14 00:13:20;;;;;;;6.43;4.27;;;;;;;;;;4931222;29;20215;-65
2022/03/14 00:15:47;;;;;;;8.03;4.77;;;;;;;;;;4930770;29;20200;-64
2022/03/14 00:18:15;;;;;;;5.67;3.83;;;;;;;;;;4931287;29;20243;-65
2022/03/14 00:20:44;;;;;;;7.50;4.50;;;;;;;;;;4931047;29;20220;-65
2022/03/14 00:23:11;;;;;;;5.97;4.73;;;;;;;;;;4930691;29;20704;-63
2022/03/14 00:25:38;;;;;;;5.77;3.83;;;;;;;;;;4930950;29;20220;-64
2022/03/14 00:28:07;;;;;;;6.20;4.10;;;;;;;;;;4915338;29;20671;-64
2022/03/14 00:30:34;;;;;;;6.10;4.37;;;;;;;;;;4926976;29;20243;-64
2022/03/14 00:33:02;;;;;;;5.57;4.30;;;;;;;;;;4917379;29;20244;-63
2022/03/14 00:35:29;;;;;;;4.90;3.97;;;;;;;;;;4930422;29;20206;-64
2022/03/14 00:37:56;;;;;;;4.17;3.70;;;;;;;;;;4931005;29;20227;-64
2022/03/14 00:40:23;;;;;;;8.87;4.67;;;;;;;;;;4930675;29;20203;-65
2022/03/14 00:42:50;;;;;;;6.27;4.70;;;;;;;;;;4931001;29;20305;-64
2022/03/14 00:45:21;;;;;;;6.97;3.83;;;;;;;;;;4931312;29;20227;-65
2022/03/14 00:47:49;;;;;;;8.03;4.60;;;;;;;;;;4930729;29;20212;-64
2022/03/14 00:50:16;;;;;;;6.53;4.53;;;;;;;;;;4931643;29;20212;-64
2022/03/14 00:52:43;;;;;;;8.80;4.73;;;;;;;;;;4934647;29;20203;-65
2022/03/14 00:55:10;;;;;;;7.07;4.77;;;;;;;;;;4934742;29;20215;-65
2022/03/14 00:57:37;;;;;;;9.67;4.70;;;;;;;;;;4934509;29;20296;-64
2022/03/14 01:00:05;;;;;;;5.17;4.07;;;;;;;;;;4933878;29;20231;-65
2022/03/14 01:02:34;;;;;;;7.13;4.70;;;;;;;;;;4932504;29;20215;-64
2022/03/14 01:05:01;;;;;;;5.47;4.07;;;;;;;;;;4932859;29;20236;-64
2022/03/14 01:07:28;;;;;;;7.70;4.13;;;;;;;;;;4932625;29;20211;-65
2022/03/14 01:09:55;;;;;;;8.73;4.60;;;;;;;;;;4933495;29;20208;-65
2022/03/14 01:12:22;;;;;;;8.67;4.80;;;;;;;;;;4932056;29;20216;-65
2022/03/14 01:14:49;;;;;;;11.33;5.07;;;;;;;;;;4933359;29;20295;-65
2022/03/14 01:17:16;;;;;;;8.63;4.90;;;;;;;;;;4931962;29;20218;-65
2022/03/14 01:19:45;;;;;;;9.20;4.67;;;;;;;;;;4932864;29;20207;-65
2022/03/14 01:22:12;;;;;;;7.03;4.47;;;;;;;;;;4932648;29;20575;-64
2022/03/14 01:24:40;;;;;;;5.87;3.97;;;;;;;;;;4932916;29;20705;-64
2022/03/14 01:27:07;;;;;;;5.73;4.10;;;;;;;;;;4933677;29;20239;-65
2022/03/14 01:29:35;;;;;;;11.70;4.17;;;;;;;;;;4933161;29;20228;-66
2022/03/14 01:32:02;;;;;;;7.93;4.47;;;;;;;;;;4933418;29;20243;-63
2022/03/14 01:34:29;;;;;;;5.70;4.73;;;;;;;;;;4932493;29;20230;-64
2022/03/14 01:36:58;;;;;;;6.33;4.23;;;;;;;;;;4932791;29;20578;-64
2022/03/14 01:39:25;;;;;;;13.03;4.20;;;;;;;;;;4933566;29;20215;-64
2022/03/14 01:41:53;;;;;;;5.00;4.33;;;;;;;;;;4933585;29;20240;-65
2022/03/14 01:44:20;;;;;;;6.37;4.30;;;;;;;;;;4933586;29;20228;-63
2022/03/14 01:46:47;;;;;;;8.83;4.23;;;;;;;;;;4932119;29;20686;-64
2022/03/14 01:49:15;;;;;;;10.03;4.63;;;;;;;;;;4933392;29;20310;-64
2022/03/14 01:51:43;;;;;;;7.97;4.40;;;;;;;;;;4932898;29;20592;-64
2022/03/14 01:54:12;;;;;;;6.63;4.33;;;;;;;;;;4931414;29;20224;-64
2022/03/14 01:56:40;;;;;;;5.63;3.90;;;;;;;;;;4931706;29;20208;-64
2022/03/14 01:59:08;;;;;;;7.70;4.27;;;;;;;;;;4931706;29;20211;-64
2022/03/14 02:01:35;;;;;;;9.47;4.53;;;;;;;;;;4931247;29;20745;-65
2022/03/14 02:04:03;;;;;;;6.40;4.07;;;;;;;;;;4931591;29;20200;-64
2022/03/14 02:06:30;;;;;;;6.93;3.97;;;;;;;;;;4931519;29;21053;-64
2022/03/14 02:08:57;;;;;;;5.10;4.00;;;;;;;;;;4931598;29;20211;-64
2022/03/14 02:11:26;;;;;;;6.27;4.30;;;;;;;;;;4931603;29;20670;-65
2022/03/14 02:13:53;;;;;;;6.97;4.57;;;;;;;;;;4932758;29;20215;-65
2022/03/14 02:16:20;;;;;;;11.27;4.90;;;;;;;;;;4932438;29;20200;-64
2022/03/14 02:18:47;;;;;;;5.77;4.13;;;;;;;;;;4932106;29;20207;-64
2022/03/14 02:21:15;;;;;;;6.53;4.47;;;;;;;;;;4931965;29;20785;-64
2022/03/14 02:23:44;;;;;;;6.10;4.10;;;;;;;;;;4931333;29;20231;-65
2022/03/14 02:26:11;;;;;;;4.03;3.33;;;;;;;;;;4927752;29;20322;-66
2022/03/14 02:28:38;;;;;;;6.13;3.50;;;;;;;;;;4931681;29;20219;-64
2022/03/14 02:31:06;;;;;;;4.73;3.03;;;;;;;;;;4931080;29;20204;-66
2022/03/14 02:33:33;;;;;;;4.13;2.80;;;;;;;;;;4930250;29;20287;-64
2022/03/14 02:36:00;;;;;;;2.40;2.20;;;;;;;;;;4931902;29;20287;-64
2022/03/14 02:38:29;;;;;;;2.53;2.33;;;;;;;;;;4928181;29;20211;-65
2022/03/14 02:40:56;;;;;;;1.90;1.80;;;;;;;;;;4931336;29;20212;-64
2022/03/14 02:43:24;;;;;;;1.63;1.50;;;;;;;;;;4931443;29;20208;-65
2022/03/14 02:45:52;;;;;;;1.67;1.57;;;;;;;;;;4928404;29;20227;-65
2022/03/14 02:48:19;;;;;;;1.63;1.53;;;;;;;;;;4931447;29;20203;-64
2022/03/14 02:50:49;;;;;;;1.17;1.17;;;;;;;;;;4930983;29;20212;-65
2022/03/14 02:53:16;;;;;;;2.00;1.80;;;;;;;;;;4930848;29;20239;-65
2022/03/14 02:55:45;;;;;;;1.50;1.40;;;;;;;;;;4931343;29;20223;-64
2022/03/14 02:58:12;;;;;;;0.90;0.90;;;;;;;;;;4931421;29;20701;-64
2022/03/14 03:00:39;;;;;;;1.03;1.03;;;;;;;;;;4931521;29;20218;-64
2022/03/14 03:03:07;;;;;;;0.90;0.90;;;;;;;;;;4930428;29;20212;-64
2022/03/14 03:05:36;;;;;;;1.10;1.00;;;;;;;;;;4930477;29;20673;-64
2022/03/14 03:08:04;;;;;;;1.33;1.23;;;;;;;;;;4931323;29;20222;-66
2022/03/14 03:10:34;;;;;;;0.93;0.93;;;;;;;;;;4930807;29;20211;-64
2022/03/14 03:13:02;;;;;;;1.00;0.90;;;;;;;;;;4929550;29;20674;-65
2022/03/14 03:15:30;;;;;;;0.73;0.73;;;;;;;;;;4926225;29;20204;-64
2022/03/14 03:17:57;;;;;;;1.17;0.77;;;;;;;;;;4930477;29;20214;-65
2022/03/14 03:20:25;;;;;;;0.80;0.80;;;;;;;;;;4930571;29;20208;-64
2022/03/14 03:22:52;;;;;;;0.60;0.60;;;;;;;;;;4931187;29;20295;-65
2022/03/14 03:25:20;;;;;;;0.80;0.77;;;;;;;;;;4926692;29;20224;-65
2022/03/14 03:27:47;;;;;;;0.53;0.53;;;;;;;;;;4929486;29;20586;-64
2022/03/14 03:30:16;;;;;;;0.50;0.50;;;;;;;;;;4930066;29;20603;-65
2022/03/14 03:32:43;;;;;;;0.77;0.57;;;;;;;;;;4930518;29;20792;-65
2022/03/14 03:35:10;;;;;;;0.60;0.60;;;;;;;;;;4930277;29;20204;-65
2022/03/14 03:37:38;;;;;;;0.60;0.60;;;;;;;;;;4930168;29;20208;-65
2022/03/14 03:40:05;;;;;;;0.53;0.53;;;;;;;;;;4930224;29;20219;-64
2022/03/14 03:42:33;;;;;;;0.53;0.50;;;;;;;;;;4930196;29;20295;-64
2022/03/14 03:45:00;;;;;;;0.50;0.50;;;;;;;;;;4929816;29;20710;-64
2022/03/14 03:47:28;;;;;;;0.93;0.83;;;;;;;;;;4930618;29;20642;-66
2022/03/14 03:49:57;;;;;;;0.77;0.60;;;;;;;;;;4930375;29;20333;-65
2022/03/14 03:52:26;;;;;;;0.60;0.40;;;;;;;;;;4929629;29;20203;-64
2022/03/14 03:54:53;;;;;;;0.50;0.50;;;;;;;;;;4930852;29;20227;-65
2022/03/14 03:57:21;;;;;;;2.20;0.47;;;;;;;;;;4927947;29;20203;-64
2022/03/14 03:59:48;;;;;;;0.60;0.60;;;;;;;;;;4930539;29;20207;-63
2022/03/14 04:02:19;;;;;;;0.83;0.50;;;;;;;;;;4930036;29;20298;-65
2022/03/14 04:04:48;;;;;;;0.37;0.37;;;;;;;;;;4931469;29;20218;-65
2022/03/14 04:07:18;;;;;;;0.50;0.50;;;;;;;;;;4931199;29;20222;-65
2022/03/14 04:09:46;;;;;;;0.40;0.40;;;;;;;;;;4931659;29;20216;-65
2022/03/14 04:12:13;;;;;;;1.23;0.60;;;;;;;;;;4931374;29;20211;-65
2022/03/14 04:14:40;;;;;;;0.47;0.47;;;;;;;;;;4930227;29;20294;-64
2022/03/14 04:17:08;;;;;;;0.43;0.43;;;;;;;;;;4931504;29;20214;-64
2022/03/14 04:19:36;;;;;;;1.50;0.70;;;;;;;;;;4931549;29;20645;-65
2022/03/14 04:22:07;;;;;;;0.50;0.50;;;;;;;;;;4931102;29;20729;-64
2022/03/14 04:24:36;;;;;;;0.40;0.40;;;;;;;;;;4931781;29;20212;-65
2022/03/14 04:27:03;;;;;;;0.30;0.30;;;;;;;;;;4935343;29;20765;-65
2022/03/14 04:29:31;;;;;;;0.60;0.60;;;;;;;;;;4934463;29;20227;-65
2022/03/14 04:31:58;;;;;;;0.67;0.67;;;;;;;;;;4933657;29;20330;-65
2022/03/14 04:34:25;;;;;;;1.67;0.50;;;;;;;;;;4931820;29;20211;-65
2022/03/14 04:36:52;;;;;;;0.50;0.50;;;;;;;;;;4932466;29;20684;-65
2022/03/14 04:39:21;;;;;;;0.33;0.33;;;;;;;;;;4932525;29;20231;-65
2022/03/14 04:41:48;;;;;;;0.47;0.47;;;;;;;;;;4932202;29;20210;-65
2022/03/14 04:44:16;;;;;;;1.00;0.53;;;;;;;;;;4930630;29;20208;-65
2022/03/14 04:46:43;;;;;;;0.70;0.70;;;;;;;;;;4931860;29;20303;-64
2022/03/14 04:49:12;;;;;;;0.50;0.50;;;;;;;;;;4931211;29;20207;-64
2022/03/14 04:51:39;;;;;;;0.50;0.50;;;;;;;;;;4933881;29;20274;-65
2022/03/14 04:54:06;;;;;;;1.47;0.60;;;;;;;;;;4933588;29;20217;-65
2022/03/14 04:56:35;;;;;;;0.60;0.60;;;;;;;;;;4932326;29;20207;-64
2022/03/14 04:59:04;;;;;;;0.40;0.40;;;;;;;;;;4932345;29;20207;-65
2022/03/14 05:01:31;;;;;;;0.43;0.40;;;;;;;;;;4930804;29;20250;-66
2022/03/14 05:03:58;;;;;;;0.70;0.70;;;;;;;;;;4931148;29;20211;-65
2022/03/14 05:06:26;;;;;;;0.57;0.57;;;;;;;;;;4929800;29;20236;-65
2022/03/14 05:08:53;;;;;;;2.20;0.50;;;;;;;;;;4931227;29;20593;-65
2022/03/14 05:11:20;;;;;;;0.60;0.60;;;;;;;;;;4931338;29;20222;-65
2022/03/14 05:13:49;;;;;;;0.43;0.43;;;;;;;;;;4932378;29;20219;-65
2022/03/14 05:16:16;;;;;;;0.57;0.57;;;;;;;;;;4930546;29;20203;-66
2022/03/14 05:18:43;;;;;;;0.87;0.50;;;;;;;;;;4931754;29;20641;-64
2022/03/14 05:21:10;;;;;;;1.80;0.70;;;;;;;;;;4931913;29;20222;-65
2022/03/14 05:23:37;;;;;;;0.50;0.50;;;;;;;;;;4930008;29;20218;-65
2022/03/14 05:26:05;;;;;;;0.53;0.50;;;;;;;;;;4931498;29;20239;-64
2022/03/14 05:28:32;;;;;;;0.47;0.47;;;;;;;;;;4931418;29;20208;-64
2022/03/14 05:31:01;;;;;;;0.87;0.87;;;;;;;;;;4931808;29;20208;-64
2022/03/14 05:33:28;;;;;;;0.70;0.70;;;;;;;;;;4930494;29;20212;-64
2022/03/14 05:35:55;;;;;;;0.60;0.60;;;;;;;;;;4931304;29;20585;-65
2022/03/14 05:38:22;;;;;;;0.77;0.77;;;;;;;;;;4931427;29;20215;-63
2022/03/14 05:40:50;;;;;;;1.90;0.70;;;;;;;;;;4932135;29;20211;-64
2022/03/14 05:43:17;;;;;;;0.67;0.67;;;;;;;;;;4931750;29;20688;-64
2022/03/14 05:45:44;;;;;;;0.70;0.70;;;;;;;;;;4931601;29;20234;-64
2022/03/14 05:48:13;;;;;;;1.43;0.80;;;;;;;;;;4931748;29;20232;-64
2022/03/14 05:50:40;;;;;;;0.80;0.80;;;;;;;;;;4931663;29;20208;-64
2022/03/14 05:53:07;;;;;;;0.70;0.70;;;;;;;;;;4927084;29;20666;-64
2022/03/14 05:55:34;;;;;;;0.90;0.90;;;;;;;;;;4929721;29;20204;-64
2022/03/14 05:58:01;;;;;;;0.40;0.40;;;;;;;;;;4932824;29;20697;-65
2022/03/14 06:00:29;;;;;;;0.63;0.63;;;;;;;;;;4932638;29;20218;-65
2022/03/14 06:02:56;;;;;;;0.60;0.60;;;;;;;;;;4931899;29;20215;-64
2022/03/14 06:05:25;;;;;;;0.50;0.50;;;;;;;;;;4930137;29;20218;-65
2022/03/14 06:07:52;;;;;;;0.60;0.60;;;;;;;;;;4932467;29;20209;-64
2022/03/14 06:10:19;;;;;;;0.40;0.40;;;;;;;;;;4929494;29;20214;-65
2022/03/14 06:12:47;;;;;;;0.50;0.50;;;;;;;;;;4931447;29;20263;-65
2022/03/14 06:15:16;;;;;;;0.47;0.47;;;;;;;;;;4925714;29;20215;-64
2022/03/14 06:17:44;;;;;;;0.47;0.47;;;;;;;;;;4931603;29;20207;-64
2022/03/14 06:20:12;;;;;;;0.60;0.60;;;;;;;;;;4931575;29;20213;-65
2022/03/14 06:22:40;;;;;;;0.40;0.40;;;;;;;;;;4931379;29;20211;-64
2022/03/14 06:25:08;;;;;;;0.30;0.30;;;;;;;;;;4932000;29;20212;-63
2022/03/14 06:27:35;;;;;;;0.40;0.40;;;;;;;;;;4930795;29;20279;-62
2022/03/14 06:30:02;;;;;;;0.40;0.40;;;;;;;;;;4929490;29;20235;-65
2022/03/14 06:32:34;;;;;;;0.47;0.47;;;;;;;;;;4929685;29;20354;-66
2022/03/14 06:35:02;;;;;;;0.50;0.50;;;;;;;;;;4929857;29;20294;-65
2022/03/14 06:37:29;;;;;;;0.60;0.60;;;;;;;;;;4930601;29;20196;-64
2022/03/14 06:39:57;;;;;;;0.73;0.73;;;;;;;;;;4931699;29;20208;-64
2022/03/14 06:42:24;;;;;;;0.63;0.63;;;;;;;;;;4923389;29;20216;-64
2022/03/14 06:44:51;;;;;;;0.40;0.40;;;;;;;;;;4926341;29;20214;-64
2022/03/14 06:47:19;;;;;;;0.50;0.50;;;;;;;;;;4926693;29;20724;-64
2022/03/14 06:49:46;;;;;;;0.80;0.80;;;;;;;;;;4930820;29;20233;-64
2022/03/14 06:52:13;;;;;;;0.70;0.70;;;;;;;;;;4930748;29;20203;-64
2022/03/14 06:54:41;;;;;;;0.80;0.80;;;;;;;;;;4930911;29;20200;-64
2022/03/14 06:57:10;;;;;;;0.70;0.70;;;;;;;;;;4931054;29;20263;-64
2022/03/14 06:59:37;;;;;;;2.20;0.90;;;;;;;;;;4930939;29;20208;-63
2022/03/14 07:02:05;;;;;;;2.00;1.10;;;;;;;;;;4930246;29;20223;-63
2022/03/14 07:04:34;;;;;;;4.60;1.07;;;;;;;;;;4930236;29;20208;-64
2022/03/14 07:07:03;;;;;;;0.80;0.80;;;;;;;;;;4930910;29;20799;-65
2022/03/14 07:09:30;;;;;;;0.87;0.87;;;;;;;;;;4930268;29;20211;-63
2022/03/14 07:11:57;;;;;;;2.03;0.93;;;;;;;;;;4930570;29;20255;-63
2022/03/14 07:14:25;;;;;;;0.83;0.83;;;;;;;;;;4930808;29;20215;-63
2022/03/14 07:16:52;;;;;;;0.80;0.80;;;;;;;;;;4930559;29;20298;-64
2022/03/14 07:19:20;;;;;;;0.80;0.70;;;;;;;;;;4929954;29;20705;-64
2022/03/14 07:21:47;;;;;;;4.70;1.03;;;;;;;;;;4930007;29;20216;-64
2022/03/14 07:24:14;;;;;;;3.60;1.00;;;;;;;;;;4929885;29;21016;-65
2022/03/14 07:26:41;;;;;;;0.80;0.80;;;;;;;;;;4929981;29;20740;-64
2022/03/14 07:29:08;;;;;;;0.70;0.70;;;;;;;;;;4929393;29;20227;-64
2022/03/14 07:31:37;;;;;;;3.23;1.00;;;;;;;;;;4930273;29;20235;-64
2022/03/14 07:34:04;;;;;;;0.73;0.73;;;;;;;;;;4929518;29;20583;-65
2022/03/14 07:36:34;;;;;;;1.03;1.03;;;;;;;;;;4930684;29;20215;-64
2022/03/14 07:39:01;;;;;;;1.43;0.90;;;;;;;;;;4929969;29;20748;-65
2022/03/14 07:41:28;;;;;;;0.97;0.70;;;;;;;;;;4929125;29;20215;-64
2022/03/14 07:43:55;;;;;;;0.63;0.63;;;;;;;;;;4930032;29;20235;-63
2022/03/14 07:46:22;;;;;;;1.07;1.07;;;;;;;;;;4930430;29;20274;-63
2022/03/14 07:48:51;;;;;;;3.63;0.80;;;;;;;;;;4930319;29;20215;-64
2022/03/14 07:51:18;;;;;;;1.30;1.10;;;;;;;;;;4930054;29;20207;-63
2022/03/14 07:53:45;;;;;;;1.90;0.73;;;;;;;;;;4929796;29;20212;-63
2022/03/14 07:56:13;;;;;;;0.57;0.57;;;;;;;;;;4930085;29;20262;-63
2022/03/14 07:58:41;;;;;;;1.70;1.10;;;;;;;;;;4929306;29;20223;-63
2022/03/14 08:01:08;;;;;;;0.80;0.80;;;;;;;;;;4933056;29;20257;-63
2022/03/14 08:03:35;;;;;;;0.70;0.70;;;;;;;;;;4934416;29;20594;-63
2022/03/14 08:06:07;;;;;;;1.57;1.10;;;;;;;;;;4934083;29;20204;-64
2022/03/14 08:08:35;;;;;;;1.60;0.90;;;;;;;;;;4933139;29;20219;-64
2022/03/14 08:11:04;;;;;;;1.27;1.00;;;;;;;;;;4934654;29;20204;-63
2022/03/14 08:13:31;;;;;;;1.20;1.00;;;;;;;;;;4933321;29;20208;-63
2022/03/14 08:15:58;;;;;;;1.00;1.00;;;;;;;;;;4930530;29;20616;-64
2022/03/14 08:18:25;;;;;;;1.13;1.00;;;;;;;;;;4932632;29;20271;-64
2022/03/14 08:20:57;;;;;;;1.37;1.13;;;;;;;;;;4933773;29;20313;-64
2022/03/14 08:23:25;;;;;;;1.57;1.10;;;;;;;;;;4934021;29;20266;-64
2022/03/14 08:25:53;;;;;;;1.13;0.90;;;;;;;;;;4930627;29;20336;-65
2022/03/14 08:28:20;;;;;;;1.10;1.10;;;;;;;;;;4933476;29;20230;-62
2022/03/14 08:30:48;;;;;;;2.47;1.60;;;;;;;;;;4932916;29;20231;-63
2022/03/14 08:33:16;;;;;;;1.43;1.00;;;;;;;;;;4933169;29;20247;-63
2022/03/14 08:35:44;;;;;;;2.97;1.20;;;;;;;;;;4933145;29;20208;-64
2022/03/14 08:38:12;;;;;;;2.53;1.10;;;;;;;;;;4933624;29;20211;-61
2022/03/14 08:40:41;;;;;;;2.17;1.13;;;;;;;;;;4933211;29;20278;-63
2022/03/14 08:43:09;;;;;;;0.80;0.80;;;;;;;;;;4928424;29;20362;-67
2022/03/14 08:45:36;;;;;;;1.17;1.07;;;;;;;;;;4931632;29;20205;-63
2022/03/14 08:48:04;;;;;;;1.80;0.90;;;;;;;;;;4932505;29;20573;-61
2022/03/14 08:50:32;;;;;;;0.93;0.90;;;;;;;;;;4932933;29;20682;-64
2022/03/14 08:52:59;;;;;;;0.80;0.70;;;;;;;;;;4933435;29;20220;-62
2022/03/14 08:55:27;;;;;;;0.93;0.93;;;;;;;;;;4933043;29;20983;-65
2022/03/14 08:57:55;;;;;;;1.73;1.02;;;;;;;;;;4932437;29;20457;-62
2022/03/14 09:00:24;;;;;;;1.17;0.73;;;;;;;;;;4932564;29;20669;-63
2022/03/14 09:02:51;;;;;;;0.47;0.47;;;;;;;;;;4928210;29;20354;-64
2022/03/14 09:05:18;;;;;;;0.60;0.60;;;;;;;;;;4930314;29;20218;-65
2022/03/14 09:07:45;;;;;;;1.50;0.70;;;;;;;;;;4931848;29;22136;-63
2022/03/14 09:10:13;;;;;;;0.80;0.43;;;;;;;;;;4932518;29;20208;-64
2022/03/14 09:12:42;;;;;;;0.80;0.80;;;;;;;;;;4931361;29;20211;-63
2022/03/14 09:15:11;;;;;;;1.10;0.90;;;;;;;;;;4933244;29;20204;-64
2022/03/14 09:17:46;;;;;;;1.13;0.90;;;;;;;;;;4933121;29;20227;-64
2022/03/14 09:20:15;;;;;;;1.00;0.87;;;;;;;;;;4933345;29;20274;-66
2022/03/14 09:22:44;;;;;;;1.00;0.90;;;;;;;;;;4933154;29;20218;-64
2022/03/14 09:25:12;;;;;;;3.60;2.08;;;;;;;;;;4932178;29;20461;-63
2022/03/14 09:27:39;;;;;;;2.73;1.40;;;;;;;;;;4933288;29;20242;-65
2022/03/14 09:30:06;;;;;;;3.13;1.40;;;;;;;;;;4933519;29;20231;-65
2022/03/14 09:32:35;;;;;;;2.00;1.40;;;;;;;;;;4931140;29;20746;-66
2022/03/14 09:35:03;;;;;;;2.10;1.10;;;;;;;;;;4929304;29;20212;-65
2022/03/14 09:37:30;;;;;;;1.80;1.10;;;;;;;;;;4923481;29;20925;-63
2022/03/14 09:39:57;;;;;;;2.73;1.30;;;;;;;;;;4932378;29;20211;-63
2022/03/14 09:42:25;;;;;;;2.67;1.20;;;;;;;;;;4926715;29;20216;-62
2022/03/14 09:44:53;;;;;;;1.47;0.97;;;;;;;;;;4920804;29;20565;-63
2022/03/14 09:47:23;;;;;;;0.60;0.60;;;;;;;;;;4922284;29;20808;-64
2022/03/14 09:49:54;;;;;;;0.90;0.90;;;;;;;;;;4921125;29;20207;-65
2022/03/14 09:52:22;;;;;;;0.90;0.70;;;;;;;;;;4922245;29;20308;-67
2022/03/14 09:54:49;;;;;;;2.10;0.80;;;;;;;;;;4924010;29;20231;-67
2022/03/14 09:57:16;;;;;;;1.17;1.07;;;;;;;;;;4923542;29;20207;-62
2022/03/14 09:59:44;;;;;;;0.93;0.87;;;;;;;;;;4921975;29;20208;-65
2022/03/14 10:02:12;;;;;;;0.83;0.60;;;;;;;;;;4922562;29;20955;-63
2022/03/14 10:04:39;;;;;;;0.90;0.90;;;;;;;;;;4922843;29;20219;-64
2022/03/14 10:07:08;;;;;;;2.63;0.80;;;;;;;;;;4923313;29;20225;-65
2022/03/14 10:09:36;;;;;;;1.70;1.10;;;;;;;;;;4921874;29;21025;-63
2022/03/14 10:12:04;;;;;;;0.80;0.80;;;;;;;;;;4924519;29;20658;-63
2022/03/14 10:14:31;;;;;;;0.80;0.80;;;;;;;;;;4929632;29;20626;-63
2022/03/14 10:16:59;;;;;;;2.83;0.70;;;;;;;;;;4922886;29;20585;-64
2022/03/14 10:19:34;;;;;;;0.70;0.70;;;;;;;;;;4921215;29;20232;-63
2022/03/14 10:22:14;;;;;;;0.60;0.60;;;;;;;;;;4923133;29;20211;-64
2022/03/14 10:24:43;;;;;;;2.57;1.10;;;;;;;;;;4922707;29;20290;-66
2022/03/14 10:27:11;;;;;;;0.90;0.90;;;;;;;;;;4921966;29;20235;-64
2022/03/14 10:29:38;;;;;;;1.77;0.80;;;;;;;;;;4921201;29;20295;-65
2022/03/14 10:32:29;;;;;;;0.90;0.90;;;;;;;;;;4920207;29;20236;-64
2022/03/14 10:34:57;;;;;;;1.30;0.70;;;;;;;;;;4923992;29;20290;-64
2022/03/14 10:37:28;;;;;;;2.20;0.90;;;;;;;;;;4923513;29;20228;-64
2022/03/14 10:39:58;;;;;;;0.90;0.90;;;;;;;;;;4932066;29;20258;-65
2022/03/14 10:42:25;;;;;;;0.70;0.70;;;;;;;;;;4919300;29;20302;-65
2022/03/14 10:44:53;;;;;;;0.90;0.90;;;;;;;;;;4919326;29;20733;-65
2022/03/14 10:47:20;;;;;;;2.73;0.80;;;;;;;;;;4927464;29;20238;-65
2022/03/14 10:49:48;;;;;;;1.50;0.90;;;;;;;;;;4926647;29;20618;-65
2022/03/14 10:52:17;;;;;;;1.67;1.10;;;;;;;;;;4927430;29;20530;-64
2022/03/14 10:54:46;;;;;;;2.30;0.60;;;;;;;;;;4927346;29;20235;-63
2022/03/14 10:57:14;;;;;;;0.77;0.77;;;;;;;;;;4926920;29;20665;-65
2022/03/14 10:59:42;;;;;;;1.17;1.07;;;;;;;;;;4927205;29;20322;-66
2022/03/14 11:02:10;;;;;;;1.03;1.00;;;;;;;;;;4927159;29;20230;-65
2022/03/14 11:04:41;;;;;;;0.80;0.80;;;;;;;;;;4909062;29;20745;-64
2022/03/14 11:07:08;;;;;;;1.60;0.70;;;;;;;;;;4919104;29;20215;-64
2022/03/14 11:09:41;;;;;;;0.70;0.70;;;;;;;;;;4927243;29;20238;-66
2022/03/14 11:12:11;;;;;;;0.50;0.50;;;;;;;;;;4908455;29;20221;-65
2022/03/14 11:14:38;;;;;;;0.73;0.70;;;;;;;;;;4925312;29;20247;-65
2022/03/14 11:17:12;;;;;;;0.83;0.80;;;;;;;;;;4927080;29;20214;-65
2022/03/14 11:19:39;;;;;;;2.17;0.60;;;;;;;;;;4927341;29;20227;-66
2022/03/14 11:22:10;;;;;;;0.70;0.70;;;;;;;;;;4927035;29;20220;-65
2022/03/14 11:24:37;;;;;;;0.70;0.70;;;;;;;;;;4927573;29;20222;-66
2022/03/14 11:27:06;;;;;;;0.77;0.77;;;;;;;;;;4926091;29;20216;-66
2022/03/14 11:29:36;;;;;;;0.90;0.87;;;;;;;;;;4927052;29;20322;-65
2022/03/14 11:32:05;;;;;;;1.10;0.93;;;;;;;;;;4925914;29;20660;-67
2022/03/14 11:34:32;;;;;;;0.97;0.87;;;;;;;;;;4925454;29;20216;-66
2022/03/14 11:36:59;;;;;;;1.20;1.10;;;;;;;;;;4918957;29;20421;-66
2022/03/14 11:39:28;;;;;;;1.37;1.17;;;;;;;;;;4926966;29;20204;-66
2022/03/14 11:41:55;;;;;;;1.00;0.93;;;;;;;;;;4924049;29;20220;-66
2022/03/14 11:44:23;;;;;;;2.00;1.00;;;;;;;;;;4926105;29;20218;-66
2022/03/14 11:46:51;;;;;;;0.90;0.90;;;;;;;;;;4925704;29;20645;-66
2022/03/14 11:49:18;;;;;;;1.20;1.10;;;;;;;;;;4924052;29;20231;-66
2022/03/14 11:51:46;;;;;;;0.90;0.90;;;;;;;;;;4911396;29;20216;-67
2022/03/14 11:54:15;;;;;;;1.03;1.03;;;;;;;;;;4907761;29;20236;-66
2022/03/14 11:56:53;;;;;;;0.70;0.70;;;;;;;;;;4920759;29;20480;-66
2022/03/14 11:59:27;;;;;;;1.50;1.00;;;;;;;;;;4913678;29;20300;-67
2022/03/14 12:01:58;;;;;;;0.97;0.97;;;;;;;;;;4922204;29;20221;-66
2022/03/14 12:04:28;;;;;;;1.50;1.07;;;;;;;;;;4926613;29;20560;-66
2022/03/14 12:07:05;;;;;;;0.57;0.57;;;;;;;;;;4926460;29;20216;-65
2022/03/14 12:09:45;;;;;;;1.27;0.83;;;;;;;;;;4926098;29;20260;-64
2022/03/14 12:12:31;;;;;;;0.73;0.73;;;;;;;;;;4925061;29;20211;-65
2022/03/14 12:14:59;;;;;;;1.20;0.73;;;;;;;;;;4926628;29;20373;-65
2022/03/14 12:17:28;;;;;;;1.43;0.90;;;;;;;;;;4917409;29;20239;-65
2022/03/14 12:19:56;;;;;;;0.90;0.90;;;;;;;;;;4926313;29;20690;-64
2022/03/14 12:22:44;;;;;;;0.73;0.73;;;;;;;;;;4926253;29;20226;-64
2022/03/14 12:25:12;;;;;;;2.83;0.77;;;;;;;;;;4926379;29;20216;-65
2022/03/14 12:27:39;;;;;;;3.63;1.20;;;;;;;;;;4926230;29;20240;-65
2022/03/14 12:30:08;;;;;;;3.53;1.00;;;;;;;;;;4926379;29;20235;-65
2022/03/14 12:32:37;;;;;;;0.63;0.60;;;;;;;;;;4907802;29;20916;-65
2022/03/14 12:35:07;;;;;;;0.90;0.90;;;;;;;;;;4908346;29;20571;-66
2022/03/14 12:37:44;;;;;;;0.77;0.77;;;;;;;;;;4917109;29;20243;-66
2022/03/14 12:40:16;;;;;;;0.63;0.63;;;;;;;;;;4927097;29;20223;-65
2022/03/14 12:42:44;;;;;;;0.90;0.90;;;;;;;;;;4926728;29;20247;-66
2022/03/14 12:45:14;;;;;;;1.40;0.60;;;;;;;;;;4926824;29;20215;-65
2022/03/14 12:47:43;;;;;;;0.70;0.60;;;;;;;;;;4929020;29;20223;-66
2022/03/14 12:50:11;;;;;;;0.50;0.50;;;;;;;;;;4930196;29;20678;-64
2022/03/14 12:52:52;;;;;;;1.50;0.53;;;;;;;;;;4930240;29;20307;-65
2022/03/14 12:55:21;;;;;;;2.17;0.40;;;;;;;;;;4930217;29;20215;-65
2022/03/14 12:57:52;;;;;;;1.43;0.30;;;;;;;;;;4929685;29;20212;-66
2022/03/14 13:00:19;;;;;;;0.30;0.30;;;;;;;;;;4929529;29;20222;-65
2022/03/14 13:02:48;;;;;;;0.67;0.43;;;;;;;;;;4928400;29;20222;-66
2022/03/14 13:05:20;;;;;;;0.73;0.30;;;;;;;;;;4928780;29;20212;-66
2022/03/14 13:08:00;;;;;;;0.20;0.20;;;;;;;;;;4917926;29;20211;-65
2022/03/14 13:10:38;;;;;;;0.40;0.40;;;;;;;;;;4927304;29;20299;-67
2022/03/14 13:13:05;;;;;;;0.35;0.35;;;;;;;;;;4920792;29;20219;-66
2022/03/14 13:15:32;;;;;;;0.30;0.30;;;;;;;;;;4928945;29;20219;-66
2022/03/14 13:18:03;;;;;;;0.23;0.23;;;;;;;;;;4928671;29;20215;-67
2022/03/14 13:20:31;;;;;;;0.30;0.30;;;;;;;;;;4928945;29;20867;-66
2022/03/14 13:22:58;;;;;;;0.30;0.30;;;;;;;;;;4928945;29;20216;-66
2022/03/14 13:25:32;;;;;;;0.30;0.20;;;;;;;;;;4928585;29;20255;-67
2022/03/14 13:27:59;;;;;;;0.40;0.37;;;;;;;;;;4927887;29;20243;-66
2022/03/14 13:30:40;;;;;;;0.30;0.30;;;;;;;;;;4928122;29;20235;-65
2022/03/14 13:33:18;;;;;;;0.20;0.20;;;;;;;;;;4927503;29;20270;-66
2022/03/14 13:35:45;;;;;;;0.20;0.20;;;;;;;;;;4927705;29;20203;-65
2022/03/14 13:38:12;;;;;;;0.30;0.30;;;;;;;;;;4928265;29;20215;-66
2022/03/14 13:40:44;;;;;;;0.20;0.20;;;;;;;;;;4926944;29;20238;-66
2022/03/14 13:43:11;;;;;;;0.60;0.30;;;;;;;;;;4926735;29;20263;-66
2022/03/14 13:45:38;;;;;;;0.25;0.25;;;;;;;;;;4927445;29;20211;-65
2022/03/14 13:48:06;;;;;;;0.20;0.20;;;;;;;;;;4927942;29;20602;-65
2022/03/14 13:50:45;;;;;;;0.30;0.30;;;;;;;;;;4927595;29;20219;-65
2022/03/14 13:53:21;;;;;;;0.13;0.13;;;;;;;;;;4927635;29;20908;-65
2022/03/14 13:55:53;;;;;;;1.87;0.27;;;;;;;;;;4927945;29;20730;-65
2022/03/14 13:58:24;;;;;;;0.55;0.28;;;;;;;;;;4926302;29;20610;-65
2022/03/14 14:00:51;;;;;;;1.40;0.50;;;;;;;;;;4925877;29;20215;-65
2022/03/14 14:03:21;;;;;;;0.50;0.50;;;;;;;;;;4927762;29;20212;-68
2022/03/14 14:05:51;;;;;;;0.60;0.60;;;;;;;;;;4927534;29;20215;-64
2022/03/14 14:08:31;;;;;;;0.50;0.50;;;;;;;;;;4928296;29;20302;-65
2022/03/14 14:10:58;;;;;;;0.50;0.50;;;;;;;;;;4925670;29;20219;-65
2022/03/14 14:13:26;;;;;;;1.40;0.52;;;;;;;;;;4926482;29;20216;-65
2022/03/14 14:15:55;;;;;;;3.03;1.37;;;;;;;;;;4927646;29;20330;-63
2022/03/14 14:18:23;;;;;;;0.50;0.50;;;;;;;;;;4927448;29;20212;-65
2022/03/14 14:20:54;;;;;;;0.43;0.43;;;;;;;;;;4927144;29;20311;-65
2022/03/14 14:23:22;;;;;;;0.40;0.40;;;;;;;;;;4908579;29;20311;-64
2022/03/14 14:25:51;;;;;;;0.30;0.30;;;;;;;;;;4909608;29;20220;-61
2022/03/14 14:28:20;;;;;;;0.40;0.40;;;;;;;;;;4914023;29;20588;-63
2022/03/14 14:30:48;;;;;;;0.50;0.50;;;;;;;;;;4927008;29;20239;-64
2022/03/14 14:33:16;;;;;;;2.07;0.50;;;;;;;;;;4926796;29;20601;-62
2022/03/14 14:35:44;;;;;;;0.50;0.50;;;;;;;;;;4926928;29;20781;-64
2022/03/14 14:38:14;;;;;;;1.13;0.60;;;;;;;;;;4927352;29;20522;-64
2022/03/14 14:40:42;;;;;;;0.40;0.40;;;;;;;;;;4926188;29;20246;-64
2022/03/14 14:43:09;;;;;;;0.65;0.38;;;;;;;;;;4912055;29;20220;-65
2022/03/14 14:45:36;;;;;;;0.80;0.80;;;;;;;;;;4925996;29;20267;-64
2022/03/14 14:48:05;;;;;;;0.37;0.30;;;;;;;;;;4927047;29;20216;-64
2022/03/14 14:50:35;;;;;;;0.60;0.47;;;;;;;;;;4926862;29;20211;-63